createdAt,value
2018-05-16T00:01:48.241Z,94720.48
2018-05-16T00:04:14.837Z,94718.25
2018-05-16T00:06:41.531Z,94713.16
2018-05-16T00:09:08.080Z,94718.55
2018-05-16T00:11:34.629Z,94724.36
2018-05-16T00:14:01.378Z,94732.20
2018-05-16T00:16:28.204Z,94728.05
2018-05-16T00:18:54.791Z,94718.43
2018-05-16T00:21:21.421Z,94719.75
2018-05-16T00:23:48.025Z,94727.14
2018-05-16T00:26:14.645Z,94733.53
2018-05-16T00:28:41.280Z,94726.84
2018-05-16T00:31:07.925Z,94736.99
2018-05-16T00:33:34.684Z,94727.24
2018-05-16T00:36:01.140Z,94725.32
2018-05-16T00:38:27.909Z,94729.89
2018-05-16T00:40:54.602Z,94732.34
2018-05-16T00:43:21.238Z,94721.78
2018-05-16T00:45:47.952Z,94729.70
2018-05-16T00:48:14.480Z,94740.03
2018-05-16T00:50:53.197Z,94728.48
2018-05-16T00:53:19.849Z,94733.47
2018-05-16T00:55:46.578Z,94723.83
2018-05-16T00:58:13.365Z,94736.72
2018-05-16T01:00:39.982Z,94724.62
2018-05-16T01:03:06.618Z,94724.11
2018-05-16T01:05:33.284Z,94709.66
2018-05-16T01:07:59.870Z,94721.38
2018-05-16T01:10:26.400Z,94698.16
2018-05-16T01:12:53.028Z,94712.48
2018-05-16T01:15:20.041Z,94710.51
2018-05-16T01:17:46.626Z,94730.95
2018-05-16T01:20:13.224Z,94737.19
2018-05-16T01:22:39.858Z,94735.14
2018-05-16T01:25:06.425Z,94747.48
2018-05-16T01:27:33.132Z,94752.25
2018-05-16T01:29:59.733Z,94766.55
2018-05-16T01:32:26.496Z,94769.23
2018-05-16T01:34:53.171Z,94768.91
2018-05-16T01:37:19.773Z,94762.72
2018-05-16T01:39:46.313Z,94787.86
2018-05-16T01:42:13.149Z,94783.58
2018-05-16T01:44:39.852Z,94788.24
2018-05-16T01:47:06.464Z,94788.88
2018-05-16T01:49:33.055Z,94787.02
2018-05-16T01:51:59.598Z,94792.59
2018-05-16T01:54:26.486Z,94793.33
2018-05-16T01:56:53.129Z,94787.42
2018-05-16T01:59:19.829Z,94799.89
2018-05-16T02:01:46.414Z,94799.70
2018-05-16T02:04:13.058Z,94796.80
2018-05-16T02:06:39.641Z,94800.98
2018-05-16T02:09:06.130Z,94808.70
2018-05-16T02:11:32.738Z,94812.80
2018-05-16T02:13:59.327Z,94808.80
2018-05-16T02:16:25.980Z,94805.00
2018-05-16T02:18:52.661Z,94794.55
2018-05-16T02:21:19.319Z,94807.84
2018-05-16T02:23:45.998Z,94799.30
2018-05-16T02:26:12.749Z,94800.27
2018-05-16T02:28:39.353Z,94805.02
2018-05-16T02:31:06.005Z,94811.21
2018-05-16T02:33:32.608Z,94807.43
2018-05-16T02:35:59.570Z,94815.63
2018-05-16T02:38:26.156Z,94822.25
2018-05-16T02:40:52.759Z,94827.56
2018-05-16T02:43:19.419Z,94827.45
2018-05-16T02:45:46.102Z,94841.35
2018-05-16T02:48:12.958Z,94843.23
2018-05-16T02:50:39.566Z,94846.47
2018-05-16T02:53:06.136Z,94859.83
2018-05-16T02:55:32.824Z,94859.97
2018-05-16T02:57:59.417Z,94862.44
2018-05-16T03:00:26.077Z,94855.73
2018-05-16T03:02:52.744Z,94864.20
2018-05-16T03:05:19.418Z,94864.75
2018-05-16T03:07:46.016Z,94865.50
2018-05-16T03:10:12.793Z,94859.55
2018-05-16T03:12:39.560Z,94860.62
2018-05-16T03:15:06.288Z,94858.30
2018-05-16T03:17:33.057Z,94868.85
2018-05-16T03:20:00.050Z,94861.89
2018-05-16T03:22:26.604Z,94865.98
2018-05-16T03:24:53.248Z,94871.39
2018-05-16T03:27:20.023Z,94873.67
2018-05-16T03:29:46.840Z,94883.16
2018-05-16T03:32:13.485Z,94887.61
2018-05-16T03:34:40.210Z,94893.02
2018-05-16T03:37:06.817Z,94884.80
2018-05-16T03:39:33.478Z,94892.83
2018-05-16T03:42:00.242Z,94892.27
2018-05-16T03:44:27.124Z,94896.27
2018-05-16T03:46:53.744Z,94901.06
2018-05-16T03:49:20.321Z,94903.94
2018-05-16T03:51:46.922Z,94903.98
2018-05-16T03:54:13.716Z,94907.78
2018-05-16T03:56:40.365Z,94906.10
2018-05-16T03:59:19.068Z,94911.42
2018-05-16T04:01:57.835Z,94914.66
2018-05-16T04:04:24.560Z,94914.92
2018-05-16T04:06:51.172Z,94917.86
2018-05-16T04:09:18.104Z,94928.16
2018-05-16T04:11:44.676Z,94927.94
2018-05-16T04:14:11.292Z,94937.12
2018-05-16T04:16:37.837Z,94935.09
2018-05-16T04:19:04.401Z,94939.45
2018-05-16T04:21:30.912Z,94939.26
2018-05-16T04:23:57.517Z,94939.06
2018-05-16T04:29:16.411Z,94941.34
2018-05-16T04:31:42.975Z,94952.06
2018-05-16T04:34:09.572Z,94958.08
2018-05-16T04:36:36.097Z,94956.34
2018-05-16T04:39:02.845Z,94962.45
2018-05-16T04:41:29.520Z,94957.94
2018-05-16T04:43:56.797Z,94963.55
2018-05-16T04:46:23.443Z,94952.72
2018-05-16T04:48:51.026Z,94958.34
2018-05-16T04:51:17.556Z,94963.09
2018-05-16T04:53:44.353Z,94961.58
2018-05-16T04:56:10.968Z,94964.58
2018-05-16T04:58:37.751Z,94970.28
2018-05-16T05:01:04.505Z,94974.93
2018-05-16T05:03:31.071Z,94979.09
2018-05-16T05:05:57.735Z,94983.19
2018-05-16T05:08:24.175Z,94982.78
2018-05-16T05:10:51.357Z,94995.41
2018-05-16T05:13:18.025Z,94996.62
2018-05-16T05:15:44.839Z,94994.95
2018-05-16T05:18:11.555Z,94994.73
2018-05-16T05:20:38.020Z,94994.98
2018-05-16T05:23:04.666Z,94995.80
2018-05-16T05:25:31.329Z,94993.75
2018-05-16T05:27:58.394Z,95005.46
2018-05-16T05:30:25.409Z,94993.58
2018-05-16T05:32:51.996Z,94999.28
2018-05-16T05:35:18.902Z,95001.33
2018-05-16T05:37:45.939Z,94999.34
2018-05-16T05:40:12.500Z,95001.55
2018-05-16T05:42:39.301Z,94998.03
2018-05-16T05:45:05.992Z,94998.34
2018-05-16T05:47:32.537Z,94999.05
2018-05-16T05:49:59.358Z,95013.66
2018-05-16T05:52:26.366Z,95011.07
2018-05-16T05:54:52.970Z,95016.58
2018-05-16T05:57:19.638Z,95017.81
2018-05-16T05:59:46.371Z,95016.02
2018-05-16T06:02:13.097Z,95022.52
2018-05-16T06:04:39.736Z,95013.17
2018-05-16T06:07:06.620Z,95018.87
2018-05-16T06:09:33.157Z,95015.98
2018-05-16T06:11:59.794Z,95019.87
2018-05-16T06:14:26.466Z,95027.58
2018-05-16T06:16:53.053Z,95029.23
2018-05-16T06:19:19.700Z,95024.16
2018-05-16T06:21:46.662Z,95021.69
2018-05-16T06:24:13.499Z,95029.13
2018-05-16T06:26:40.030Z,95029.32
2018-05-16T06:29:06.625Z,95037.54
2018-05-16T06:31:33.255Z,95035.02
2018-05-16T06:33:59.766Z,95026.48
2018-05-16T06:36:26.373Z,95038.57
2018-05-16T06:38:53.098Z,95034.70
2018-05-16T06:41:19.564Z,95033.97
2018-05-16T06:43:46.040Z,95031.63
2018-05-16T06:46:12.597Z,95037.63
2018-05-16T06:48:39.049Z,95040.07
2018-05-16T06:51:05.542Z,95036.02
2018-05-16T06:53:32.000Z,95040.08
2018-05-16T06:55:58.668Z,95040.07
2018-05-16T06:58:25.214Z,95033.38
2018-05-16T07:00:51.867Z,95033.48
2018-05-16T07:03:18.436Z,95035.10
2018-05-16T07:05:45.031Z,95028.20
2018-05-16T07:08:11.535Z,95031.23
2018-05-16T07:10:37.978Z,95037.30
2018-05-16T07:13:04.435Z,95036.18
2018-05-16T07:15:30.892Z,95038.09
2018-05-16T07:17:57.500Z,95038.71
2018-05-16T07:20:24.010Z,95051.53
2018-05-16T07:22:50.515Z,95050.11
2018-05-16T07:25:17.172Z,95049.70
2018-05-16T07:27:43.694Z,95048.48
2018-05-16T07:30:10.351Z,95047.63
2018-05-16T07:32:37.051Z,95046.69
2018-05-16T07:35:03.744Z,95042.83
2018-05-16T07:37:30.431Z,95042.69
2018-05-16T07:39:57.005Z,95048.02
2018-05-16T07:42:23.553Z,95038.67
2018-05-16T07:44:50.101Z,95044.80
2018-05-16T07:47:16.627Z,95046.98
2018-05-16T07:49:43.283Z,95051.33
2018-05-16T07:52:09.861Z,95049.89
2018-05-16T07:54:36.364Z,95049.56
2018-05-16T07:57:03.098Z,95050.45
2018-05-16T07:59:29.607Z,95057.36
2018-05-16T08:01:56.071Z,95056.33
2018-05-16T08:04:22.770Z,95064.19
2018-05-16T08:06:49.352Z,95061.95
2018-05-16T08:09:15.965Z,95064.82
2018-05-16T08:11:42.525Z,95055.56
2018-05-16T08:14:09.209Z,95064.60
2018-05-16T08:16:35.834Z,95072.33
2018-05-16T08:19:02.348Z,95068.86
2018-05-16T08:21:28.999Z,95078.14
2018-05-16T08:23:55.604Z,95073.98
2018-05-16T08:26:22.394Z,95083.76
2018-05-16T08:28:48.932Z,95089.23
2018-05-16T08:31:22.697Z,95081.48
2018-05-16T08:33:49.159Z,95074.20
2018-05-16T08:36:15.700Z,95073.80
2018-05-16T08:38:42.135Z,95068.27
2018-05-16T08:41:08.577Z,95074.95
2018-05-16T08:43:35.098Z,95073.30
2018-05-16T08:46:01.668Z,95070.94
2018-05-16T08:48:28.216Z,95073.18
2018-05-16T08:50:54.784Z,95076.02
2018-05-16T08:53:21.436Z,95081.48
2018-05-16T08:55:47.987Z,95080.27
2018-05-16T08:58:14.541Z,95075.63
2018-05-16T09:00:41.269Z,95075.33
2018-05-16T09:03:07.913Z,95086.70
2018-05-16T09:05:34.368Z,95080.52
2018-05-16T09:08:00.949Z,95075.45
2018-05-16T09:10:27.546Z,95077.22
2018-05-16T09:12:54.064Z,95068.25
2018-05-16T09:15:20.694Z,95067.52
2018-05-16T09:17:47.174Z,95070.66
2018-05-16T09:20:13.681Z,95083.41
2018-05-16T09:22:40.300Z,95077.02
2018-05-16T09:25:06.943Z,95084.73
2018-05-16T09:27:33.705Z,95074.48
2018-05-16T09:30:00.503Z,95074.02
2018-05-16T09:32:27.144Z,95056.18
2018-05-16T09:34:53.840Z,95050.67
2018-05-16T09:37:20.347Z,95048.25
2018-05-16T09:39:46.940Z,95052.52
2018-05-16T09:42:13.654Z,95045.38
2018-05-16T09:44:40.339Z,95038.66
2018-05-16T09:47:06.979Z,95048.33
2018-05-16T09:49:33.730Z,95050.52
2018-05-16T09:52:00.346Z,95039.92
2018-05-16T09:54:26.963Z,95045.01
2018-05-16T09:56:53.707Z,95043.10
2018-05-16T09:59:27.176Z,95036.29
2018-05-16T10:01:53.863Z,95038.08
2018-05-16T10:04:20.488Z,95038.91
2018-05-16T10:06:46.985Z,95029.23
2018-05-16T10:09:13.533Z,95036.80
2018-05-16T10:11:40.045Z,95037.88
2018-05-16T10:14:06.672Z,95040.14
2018-05-16T10:16:33.185Z,95036.81
2018-05-16T10:18:59.653Z,95045.50
2018-05-16T10:21:26.325Z,95046.58
2018-05-16T10:23:53.120Z,95035.80
2018-05-16T10:26:19.704Z,95038.64
2018-05-16T10:28:46.244Z,95039.02
2018-05-16T10:31:12.670Z,95047.20
2018-05-16T10:33:39.296Z,95035.76
2018-05-16T10:36:05.893Z,95041.32
2018-05-16T10:38:32.357Z,95042.18
2018-05-16T10:40:58.917Z,95037.88
2018-05-16T10:43:25.414Z,95039.73
2018-05-16T10:45:52.080Z,95041.23
2018-05-16T10:48:18.521Z,95043.93
2018-05-16T10:50:45.250Z,95040.70
2018-05-16T10:53:11.894Z,95036.48
2018-05-16T10:55:38.497Z,95044.95
2018-05-16T10:58:05.040Z,95047.45
2018-05-16T11:00:32.423Z,95050.84
2018-05-16T11:02:59.157Z,95053.30
2018-05-16T11:05:25.784Z,95051.16
2018-05-16T11:07:52.490Z,95049.19
2018-05-16T11:10:19.000Z,95046.01
2018-05-16T11:12:45.704Z,95049.15
2018-05-16T11:15:19.345Z,95044.27
2018-05-16T11:17:45.896Z,95051.81
2018-05-16T11:20:12.334Z,95044.47
2018-05-16T11:22:39.005Z,95047.77
2018-05-16T11:25:05.590Z,95039.09
2018-05-16T11:27:32.278Z,95040.83
2018-05-16T11:29:58.978Z,95051.45
2018-05-16T11:32:25.700Z,95039.52
2018-05-16T11:34:52.372Z,95041.38
2018-05-16T11:37:19.157Z,95037.98
2018-05-16T11:39:45.665Z,95037.73
2018-05-16T11:42:12.249Z,95028.47
2018-05-16T11:44:38.871Z,95030.95
2018-05-16T11:49:31.473Z,95031.08
2018-05-16T11:51:58.130Z,95028.05
2018-05-16T11:54:24.779Z,95025.14
2018-05-16T11:56:51.434Z,95018.28
2018-05-16T11:59:18.269Z,95027.52
2018-05-16T12:01:45.015Z,95027.12
2018-05-16T12:04:11.556Z,95024.86
2018-05-16T12:06:38.221Z,95024.12
2018-05-16T12:09:04.983Z,95021.57
2018-05-16T12:11:31.738Z,95031.22
2018-05-16T12:13:58.385Z,95023.59
2018-05-16T12:16:25.066Z,95025.20
2018-05-16T12:18:51.734Z,95025.08
2018-05-16T12:21:18.256Z,95025.88
2018-05-16T12:23:45.016Z,95012.28
2018-05-16T12:26:11.518Z,95023.38
2018-05-16T12:28:38.242Z,95016.11
2018-05-16T12:31:04.982Z,95020.23
2018-05-16T12:33:31.606Z,95012.00
2018-05-16T12:35:58.361Z,95017.23
2018-05-16T12:38:24.972Z,95012.34
2018-05-16T12:40:51.813Z,95004.97
2018-05-16T12:43:18.566Z,95007.33
2018-05-16T12:45:45.299Z,95008.33
2018-05-16T12:48:11.860Z,95001.84
2018-05-16T12:58:54.603Z,95002.53
2018-05-16T13:01:21.290Z,95005.69
2018-05-16T13:03:48.136Z,95001.91
2018-05-16T13:06:14.865Z,95000.35
2018-05-16T13:08:41.401Z,95003.80
2018-05-16T13:11:08.015Z,95003.04
2018-05-16T13:13:34.733Z,94997.53
2018-05-16T13:16:01.464Z,94994.75
2018-05-16T13:18:27.969Z,94998.57
2018-05-16T13:20:54.581Z,94991.95
2018-05-16T13:23:21.215Z,94999.13
2018-05-16T13:25:47.955Z,94999.70
2018-05-16T13:28:14.636Z,94993.23
2018-05-16T13:30:41.260Z,94996.40
2018-05-16T13:33:07.893Z,94996.64
2018-05-16T13:35:34.531Z,94997.14
2018-05-16T13:38:01.101Z,94990.77
2018-05-16T13:40:27.952Z,94991.17
2018-05-16T13:42:54.540Z,94984.99
2018-05-16T13:45:21.116Z,94995.72
2018-05-16T13:47:47.689Z,94988.86
2018-05-16T13:50:14.452Z,94992.72
2018-05-16T13:52:41.001Z,94991.63
2018-05-16T13:55:07.605Z,94990.46
2018-05-16T13:57:34.225Z,94983.76
2018-05-16T14:00:00.883Z,94978.45
2018-05-16T14:02:27.396Z,94982.45
2018-05-16T14:04:54.076Z,94983.94
2018-05-16T14:07:20.668Z,94982.48
2018-05-16T14:09:47.245Z,94972.08
2018-05-16T14:12:13.855Z,94972.72
2018-05-16T14:14:40.545Z,94968.84
2018-05-16T14:17:07.209Z,94967.52
2018-05-16T14:19:33.767Z,94972.54
2018-05-16T14:22:00.375Z,94965.20
2018-05-16T14:24:26.912Z,94972.39
2018-05-16T14:26:53.479Z,94973.57
2018-05-16T14:29:19.960Z,94973.08
2018-05-16T14:34:19.869Z,94967.28
2018-05-16T14:36:46.549Z,94960.99
2018-05-16T14:39:13.245Z,94969.98
2018-05-16T14:41:39.897Z,94963.47
2018-05-16T14:44:06.495Z,94962.95
2018-05-16T14:46:33.117Z,94968.93
2018-05-16T14:48:59.746Z,94966.20
2018-05-16T14:51:26.419Z,94965.05
2018-05-16T14:53:53.022Z,94967.47
2018-05-16T14:56:19.619Z,94956.94
2018-05-16T14:58:46.353Z,94961.73
2018-05-16T15:01:12.942Z,94966.45
2018-05-16T15:03:39.626Z,94963.25
2018-05-16T15:06:06.330Z,94961.24
2018-05-16T15:08:33.197Z,94966.82
2018-05-16T15:11:03.932Z,94952.69
2018-05-16T15:13:31.000Z,94956.19
2018-05-16T15:15:57.633Z,94962.20
2018-05-16T15:18:24.180Z,94960.53
2018-05-16T15:20:50.843Z,94958.83
2018-05-16T15:23:17.479Z,94947.16
2018-05-16T15:25:45.029Z,94937.69
2018-05-16T15:28:11.611Z,94946.42
2018-05-16T15:30:38.244Z,94952.16
2018-05-16T15:33:04.938Z,94952.38
2018-05-16T15:35:31.525Z,94944.59
2018-05-16T15:48:43.393Z,94941.93
2018-05-16T15:51:10.005Z,94945.87
2018-05-16T15:53:36.614Z,94942.49
2018-05-16T15:56:03.221Z,94939.58
2018-05-16T15:58:29.764Z,94937.88
2018-05-16T16:00:56.543Z,94935.48
2018-05-16T16:03:23.110Z,94939.02
2018-05-16T16:05:49.863Z,94946.39
2018-05-16T16:08:16.434Z,94938.34
2018-05-16T16:10:42.994Z,94942.18
2018-05-16T16:13:09.577Z,94942.52
2018-05-16T16:15:36.169Z,94935.55
2018-05-16T16:18:02.718Z,94937.50
2018-05-16T16:20:29.290Z,94939.27
2018-05-16T16:22:55.788Z,94942.12
2018-05-16T16:25:22.464Z,94941.09
2018-05-16T16:27:48.967Z,94937.25
2018-05-16T16:30:15.580Z,94936.76
2018-05-16T16:32:42.202Z,94932.64
2018-05-16T16:35:08.928Z,94934.09
2018-05-16T16:37:35.427Z,94938.69
2018-05-16T16:40:02.300Z,94926.69
2018-05-16T16:42:29.393Z,94927.09
2018-05-16T16:44:58.084Z,94930.16
2018-05-16T16:47:25.401Z,94931.06
2018-05-16T16:49:52.089Z,94932.58
2018-05-16T16:52:20.709Z,94940.97
2018-05-16T16:54:50.581Z,94942.61
2018-05-16T16:57:17.334Z,94941.36
2018-05-16T16:59:43.948Z,94944.34
2018-05-16T17:02:10.456Z,94943.03
2018-05-16T17:04:36.990Z,94940.97
2018-05-16T17:07:03.662Z,94945.80
2018-05-16T17:09:30.229Z,94947.67
2018-05-16T17:11:56.824Z,94948.37
2018-05-16T17:14:23.392Z,94954.70
2018-05-16T17:16:49.961Z,94959.69
2018-05-16T17:19:16.564Z,94959.53
2018-05-16T17:21:44.215Z,94957.85
2018-05-16T17:24:11.121Z,94962.20
2018-05-16T17:26:37.795Z,94958.30
2018-05-16T17:29:04.371Z,94969.47
2018-05-16T17:31:30.896Z,94969.34
2018-05-16T17:33:57.483Z,94968.41
2018-05-16T17:36:24.017Z,94976.62
2018-05-16T17:38:50.615Z,94971.53
2018-05-16T17:41:17.213Z,94967.50
2018-05-16T17:49:19.765Z,94969.52
2018-05-16T17:51:47.007Z,94969.76
2018-05-16T17:54:13.665Z,94971.95
2018-05-16T17:56:40.248Z,94973.58
2018-05-16T17:59:06.859Z,94974.91
2018-05-16T18:01:33.531Z,94974.06
2018-05-16T18:04:00.131Z,94985.05
2018-05-16T18:06:26.715Z,94987.85
2018-05-16T18:08:53.379Z,94990.57
2018-05-16T18:11:20.073Z,94992.31
2018-05-16T18:13:59.548Z,94991.86
2018-05-16T18:16:39.203Z,94987.73
2018-05-16T18:19:05.809Z,94985.23
2018-05-16T18:21:32.404Z,94984.66
2018-05-16T18:23:59.049Z,94986.94
2018-05-16T18:26:25.776Z,94987.80
2018-05-16T18:28:52.453Z,95011.72
2018-05-16T18:31:19.196Z,95016.42
2018-05-16T18:33:45.817Z,95035.84
2018-05-16T18:36:12.346Z,95039.61
2018-05-16T18:38:39.054Z,95043.47
2018-05-16T18:41:05.611Z,95036.27
2018-05-16T18:43:32.209Z,95030.39
2018-05-16T18:45:58.760Z,95028.02
2018-05-16T18:48:25.256Z,95020.77
2018-05-16T18:50:51.817Z,95010.88
2018-05-16T18:53:18.467Z,95020.92
2018-05-16T18:55:45.093Z,95029.25
2018-05-16T18:58:11.600Z,95024.75
2018-05-16T19:00:38.285Z,95041.05
2018-05-16T19:03:04.967Z,95048.97
2018-05-16T19:05:31.544Z,95045.44
2018-05-16T19:07:58.079Z,95046.42
2018-05-16T19:10:24.680Z,95047.55
2018-05-16T19:12:51.441Z,95047.73
2018-05-16T19:15:19.036Z,95049.74
2018-05-16T19:17:45.609Z,95046.77
2018-05-16T19:20:12.312Z,95045.66
2018-05-16T19:22:38.884Z,95045.61
2018-05-16T19:25:05.813Z,95042.31
2018-05-16T19:27:32.625Z,95040.98
2018-05-16T19:29:59.143Z,95039.68
2018-05-16T19:32:25.770Z,95040.42
2018-05-16T19:34:52.416Z,95046.28
2018-05-16T19:37:19.127Z,95045.55
2018-05-16T19:39:47.515Z,95055.90
2018-05-16T19:42:17.258Z,95059.00
2018-05-16T19:44:43.877Z,95058.77
2018-05-16T19:47:10.623Z,95064.77
2018-05-16T19:49:37.152Z,95065.98
2018-05-16T19:52:03.926Z,95061.53
2018-05-16T19:54:30.640Z,95070.92
2018-05-16T19:56:57.192Z,95070.95
2018-05-16T19:59:23.787Z,95074.31
2018-05-16T20:01:50.461Z,95075.67
2018-05-16T20:04:17.286Z,95074.78
2018-05-16T20:06:43.873Z,95078.84
2018-05-16T20:09:10.539Z,95078.33
2018-05-16T20:11:37.701Z,95079.65
2018-05-16T20:14:04.312Z,95084.05
2018-05-16T20:16:30.903Z,95079.52
2018-05-16T20:18:57.901Z,95067.97
2018-05-16T20:21:24.539Z,95074.47
2018-05-16T20:23:51.366Z,95071.95
2018-05-16T20:26:17.908Z,95070.74
2018-05-16T20:28:44.676Z,95075.22
2018-05-16T20:31:11.259Z,95069.71
2018-05-16T20:33:37.724Z,95067.31
2018-05-16T20:36:04.270Z,95068.20
2018-05-16T20:38:30.900Z,95061.20
2018-05-16T20:40:57.664Z,95060.39
2018-05-16T20:43:24.252Z,95072.09
2018-05-16T20:45:50.847Z,95063.72
2018-05-16T20:48:17.368Z,95067.61
2018-05-16T20:50:44.043Z,95069.84
2018-05-16T20:53:10.789Z,95070.77
2018-05-16T20:55:37.385Z,95067.63
2018-05-16T20:58:04.222Z,95070.06
2018-05-16T21:00:30.761Z,95062.41
2018-05-16T21:02:57.616Z,95060.28
2018-05-16T21:05:24.542Z,95064.25
2018-05-16T21:07:51.250Z,95057.75
2018-05-16T21:10:17.831Z,95062.41
2018-05-16T21:12:44.493Z,95057.53
2018-05-16T21:15:11.278Z,95053.77
2018-05-16T21:17:37.773Z,95050.83
2018-05-16T21:20:04.591Z,95048.40
2018-05-16T21:22:31.111Z,95051.16
2018-05-16T21:24:57.708Z,95049.40
2018-05-16T21:27:24.356Z,95044.11
2018-05-16T21:29:51.048Z,95047.05
2018-05-16T21:32:17.853Z,95048.70
2018-05-16T21:34:44.458Z,95047.09
2018-05-16T21:37:11.116Z,95039.08
2018-05-16T21:39:37.816Z,95046.19
2018-05-16T21:42:04.445Z,95044.84
2018-05-16T21:44:31.289Z,95043.53
2018-05-16T21:46:57.859Z,95049.22
2018-05-16T21:49:24.458Z,95043.22
2018-05-16T21:51:51.008Z,95044.13
2018-05-16T21:54:17.704Z,95049.23
2018-05-16T21:56:44.286Z,95045.47
2018-05-16T21:59:17.951Z,95049.84
2018-05-16T22:01:44.442Z,95050.06
2018-05-16T22:04:11.205Z,95047.38
2018-05-16T22:06:37.780Z,95046.78
2018-05-16T22:09:05.223Z,95056.77
2018-05-16T22:11:31.759Z,95057.88
2018-05-16T22:13:58.412Z,95054.94
2018-05-16T22:16:24.889Z,95059.40
2018-05-16T22:18:51.572Z,95050.88
2018-05-16T22:21:18.100Z,95035.41
2018-05-16T22:23:44.703Z,95027.28
2018-05-16T22:26:11.178Z,95025.45
2018-05-16T22:28:37.732Z,95020.98
2018-05-16T22:31:10.461Z,95021.70
2018-05-16T22:33:42.999Z,95008.27
2018-05-16T22:36:15.792Z,95009.00
2018-05-16T22:38:48.199Z,95023.83
2018-05-16T22:41:20.895Z,95035.72
2018-05-16T22:46:30.469Z,95026.48
2018-05-16T22:48:57.127Z,95033.70
2018-05-16T22:51:23.847Z,95035.92
2018-05-16T22:53:50.496Z,95041.21
2018-05-16T22:56:16.967Z,95045.28
2018-05-16T22:58:43.535Z,95046.01
2018-05-16T23:01:16.946Z,95046.30
2018-05-16T23:03:43.420Z,95045.07
2018-05-16T23:06:09.900Z,95040.51
2018-05-16T23:08:36.613Z,95043.45
2018-05-16T23:11:03.167Z,95045.98
2018-05-16T23:13:29.793Z,95044.44
2018-05-16T23:15:56.324Z,95042.30
2018-05-16T23:18:22.956Z,95036.83
2018-05-16T23:20:49.646Z,95045.54
2018-05-16T23:23:16.278Z,95053.36
2018-05-16T23:25:42.924Z,95046.36
2018-05-16T23:28:09.847Z,95035.21
2018-05-16T23:30:36.533Z,95030.61
2018-05-16T23:33:03.328Z,95044.02
2018-05-16T23:35:30.015Z,95046.34
2018-05-16T23:37:56.631Z,95035.06
2018-05-16T23:40:23.279Z,95037.74
2018-05-16T23:42:50.196Z,95032.53
2018-05-16T23:45:16.813Z,95018.64
2018-05-16T23:47:43.529Z,95010.82
2018-05-16T23:50:10.132Z,95005.03
2018-05-16T23:52:36.890Z,95008.48
2018-05-16T23:55:03.612Z,95013.78
2018-05-16T23:57:30.256Z,95011.73
2018-05-16T23:59:56.741Z,95006.55
